Covarrubias, Tony
United StatesManBorn 19601999 – 2026Runner id 35378
Events
195
177 race dates
Best pace
11.364
km/h · 2008
Best finish
3rd
of 56 · 2007
Distance raced
16,595
km · splits not double-counted
Pace over time
187 of 195 results · km/h
Pace over time: 178 races and 9 splits from 1999 to 2026, ranging from 2.08 to 14.21 kilometres per hour, where higher is faster. A second, age-graded series is drawn above it; the gap between the two is the age credit.
- Actual pace
- Age-graded pace
- Split of a race already plotted
8 results are not on this chart. They are counted in every statistic above and listed in full below — backyard ultras carry a lap count instead of a pace, which is the number that means something in that format.
Results
| Date | Event | Distance | Result | Pace km/h | Placing |
|---|---|---|---|---|---|
| 1999-08-14 | Glacier Peak Trail RunUnited States | 34mi | 8:45:49 h | 6.244 | 7/13 |
| 1999-09-25 | 50km | 6:52:21 h | 7.275 | 52/95 | |
| 1999-11-28 | Seward Park 50 Km RunUnited States | 50km | 4:25:46 h | 11.288 | 4/17 |
| 2000-03-18 | 24h | 80.467 km | 3.353 | 20/32 | |
| 2000-04-09 | Mt. Si 50 Miles Ultra RunUnited States | 56mi | 8:17:07 h | 10.878 | 11/26 |
| 2000-05-26 | Sri Chinmoy 24-Hour Track Run SeattleUnited States | 24h | 136.000 km | 5.667 | 6/20 |
| 2000-08-12 | 50mi | 10:51:39 h | 7.409 | 36/46 | |
| 2001-01-13 | Bridle Trails Winter Running FestivalUnited States | 50km | 6:10:45 h | 8.092 | 19/33 |
| 2001-02-17 | 50km | 5:52:51 h | 8.502 | 39/63 | |
| 2001-04-08 | Mt. Si 50 Miles Ultra RunUnited States | 50mi | 9:11:01 h | 8.762 | 19/26 |
| 2001-05-25 | Sri Chinmoy 24-Hour Track Run SeattleUnited States | 24h | 180.000 km | 7.500 | 2/12 |
| 2002-01-12 | Bridle Trails Winter Running FestivalUnited States | 50km | 5:57:16 h | 8.397 | 18/37 |
| 2002-04-14 | Mt. Si 50 Miles Ultra RunUnited States | 50mi | 8:23:37 h | 9.587 | 12/24 |
| 2002-07-27 | 50mi | 9:58:27 h | 8.068 | 51/106 | |
| 2002-08-24 | 100mi | 28:07:00 h | 5.724 | 19/40 | |
| 2002-11-09 | Tanks Alot 50KUnited States | 50km | 5:48:40 h | 8.604 | 4/17 |
| 2003-01-11 | Bridle Trails Winter Running FestivalUnited States | 50km | 6:00:20 h | 8.326 | 26/36 |
| 2003-03-15 | Chuckanut 50KUnited States | 50km | 6:16:45 h | 7.963 | 90/165 |
| 2003-03-22 | 24h | 96.560 km | 4.023 | 20/47 | |
| 2003-04-12 | Diez Vista 50K Trail RunCanada | 50km | 6:15:15 h | 7.995 | 49/138 |
| 2003-04-27 | Mt. Si 50 Miles Ultra RunUnited States | 50mi | 7:09:14 h | 11.248 | 5/27 |
| 2003-06-20 | 100mi | 30:21:00 h | 5.303 | 11/32 | |
| 2003-08-02 | 50mi | 9:21:45 h | 8.595 | 51/132 | |
| 2003-08-23 | 100mi | 25:33:00 h | 6.299 | 8/41 | |
| 2004-01-10 | Bridle Trails Winter Running FestivalUnited States | 50km | 5:23:27 h | 9.275 | 15/24 |
| 2004-01-24 | Capitol Peak MegaFatAssUnited States | 34mi | 6:51:00 h | 7.988 | 18/24 |
| 2004-02-07 | 50km | 5:47:00 h | 8.646 | 12/26 | |
| 2004-04-04 | 50mi | 8:15:21 h | 9.747 | 15/37 | |
| 2004-05-22 | Watershed Preserve 12 Hr Trail RaceUnited States | 12h | 100.370 km | 8.364 | 4/17 |
| 2004-07-31 | 50mi | 10:01:10 h | 8.031 | 58/104 | |
| 2004-08-28 | 100mi | 25:11:00 h | 6.391 | 5/50 | |
| 2004-10-02 | Baker Lake 50K Ultra Trail RunUnited States | 50km | 5:13:02 h | 9.584 | 12/67 |
| 2005-01-08 | Bridle Trails Winter Running FestivalUnited States | 50km | 4:37:11 h | 10.823 | 15/34 |
| 2005-01-22 | Capitol Peak MegaFatAssUnited States | 34mi | 6:33:00 h | 8.354 | 21/36 |
| 2005-03-19 | Chuckanut 50KUnited States | 50km | 4:49:51 h | 10.350 | 24/210 |
| 2005-04-17 | 50mi | 7:40:12 h | 10.491 | 8/38 | |
| 2005-06-11 | Capitol Peak 50 MilerUnited States | 50mi | 10:49:03 h | 7.439 | 11/31 |
| 2005-08-27 | 100mi | 23:26:00 h | 6.868 | 12/70 | |
| 2005-10-01 | Baker Lake 50K Ultra Trail RunUnited States | 50km | 5:44:43 h | 8.703 | 25/101 |
| 2006-01-21 | Capitol Peak MegaFatAssUnited States | 34mi | 6:57:43 h | 7.860 | 6/17 |
| 2006-02-04 | Pigtails Run 50KUnited States | 50km | 4:25:00 h | 11.321 | 5/12 |
| 2006-03-18 | Chuckanut 50KUnited States | 50km | 5:17:00 h | 9.464 | 54/242 |
| 2006-05-20 | Watershed Preserve 12 Hr Trail RaceUnited States | 12h | 102.112 km | 8.509 | 4/30 |
| 2006-07-29 | 50mi | 8:41:41 h | 9.255 | 29/124 | |
| 2006-08-26 | 100mi | 24:46:00 h | 6.498 | 8/43 | |
| 2006-10-07 | Baker Lake 50K Ultra Trail RunUnited States | 50km | 5:34:46 h | 8.961 | 33/113 |
| 2006-11-11 | Ron Herzog 50KUnited States | 50km | 5:10:43 h | 9.655 | 9/32 |
| 2007-01-13 | Bridle Trails Winter Running FestivalUnited States | 50km | 5:11:14 h | 9.639 | 21/44 |
| 2007-01-20 | Capitol Peak MegaFatAssUnited States | 34mi | 7:32:00 h | 7.263 | 14/16 |
| 2007-02-03 | Pigtails Run 50KUnited States | 50km | 4:33:00 h | 10.989 | 9/44 |
| 2007-03-17 | 24h | 49.889 km | 2.079 | 40/41 | |
| 2007-03-17 | Chuckanut 50KUnited States | 50km | 5:33:40 h | 8.991 | 69/260 |
| 2007-04-01 | Palouse 100K Relay And SoloUnited States | 100km | 10:26:26 h | 9.578 | 2/7 |
| 2007-04-22 | 50mi | 7:24:41 h | 10.857 | 9/54 | |
| 2007-05-19 | Watershed Preserve 12 Hr Trail RaceUnited States | 12h | 115.389 km | 9.616 | 3/56 |
| 2007-06-09 | Lake Youngs UltraUnited States | 28.8mi | 4:27:00 h | 10.416 | 10/62 |
| 2007-06-23 | 100mi | 25:43:54 h | 6.254 | 121/270 | |
| 2007-07-28 | 50mi | 10:13:22 h | 7.871 | 64/144 | |
| 2007-09-15 | 50km | 8:58:20 h | 5.573 | 81/86 | |
| 2007-10-13 | The 20th Century 100K Trail RunUnited States | 100km | 10:28:00 h | 9.554 | 2/11 |
| 2007-12-22 | 50km | 4:27:04 h | 11.233 | 9/42 | |
| 2008-01-26 | Pigtails Run 50KUnited States | 50km | 4:42:00 h | 10.638 | 10/49 |
| 2008-03-15 | Pacific Rim One DayUnited States | 24h | 162.543 km | 6.773 | 9/43 |
| 2008-04-13 | 50mi | 8:11:12 h | 9.829 | 17/50 | |
| 2008-04-26 | 50mi | 10:43:15 h | 7.506 | 22/37 | |
| 2008-05-17 | Watershed Preserve 12 Hr Trail RaceUnited States | 12h | 91.845 km | 7.654 | 8/53 |
| 2008-06-14 | Lake Youngs UltraUnited States | 28.8mi | 5:28:23 h | 8.469 | 70/95 |
| 2008-07-26 | 50mi | 8:51:29 h | 9.084 | 38/202 | |
| 2008-08-23 | 100mi | 24:52:40 h | 6.469 | 14/77 | |
| 2008-10-25 | 12h | 80.756 km | 6.730 | 8/18 | |
| 2008-11-15 | 50mi | 7:35:47 h | 10.593 | 5/32 | |
| 2008-11-29 | Ghost of Seattle MarathonUnited States | 50km | 4:24:00 h | 11.364 | 1/8 |
| 2009-01-10 | Bridle Trails Winter Running FestivalUnited States | 50km | 5:57:45 h | 8.386 | 30/50 |
| 2009-01-24 | Pigtails Run 50KUnited States | 50km | 5:25:00 h | 9.231 | 27/49 |
| 2009-02-07 | Orcas Island 50kUnited States | 50km | 7:39:12 h | 6.533 | 82/106 |
| 2009-03-21 | 24h | 174.614 km | 7.276 | 6/49 | |
| 2009-03-28 | 50km | 6:02:00 h | 8.287 | 16/19 | |
| 2009-04-10 | 150mi | 2d 03:16:30 h | 4.708 | 10/12 | |
| 2009-05-16 | Watershed Preserve 12 Hr Trail RaceUnited States | 12h | 86.502 km | 7.209 | 24/66 |
| 2009-07-25 | 50mi | 10:16:27 h | 7.832 | 73/166 | |
| 2009-08-07 | 100mi | 24:47:44 h | 6.490 | 11/22 | |
| 2009-09-12 | 100mi | 35:15:08 h | 4.565 | 8/10 | |
| 2009-09-26 | 100mi | 28:51:21 h | 5.577 | 79/87 | |
| 2009-10-31 | 12h | 65.226 km | 5.436 | 11/33 | |
| 2009-11-28 | Ghost of Seattle MarathonUnited States | 50km | 4:59:00 h | 10.033 | 3/6 |
| 2009-12-19 | Pigtails Run 50KUnited States | 50km | 4:41:57 h | 10.640 | 9/32 |
| 2010-01-09 | Bridle Trails Winter Running FestivalUnited States | 50km | 6:00:25 h | 8.324 | 53/70 |
| 2010-01-16 | 34mi | 5:27:00 h | 10.040 | 15/38 | |
| 2010-01-23 | Pigtails Run 50KUnited States | 50km | 6:14:09 h | 8.018 | 66/80 |
| 2010-03-07 | Lord Hill Trail RunUnited States | 50km | 6:30:42 h | 7.679 | 6/21 |
| 2010-03-20 | 24h | 160.934 km | 6.706 | 11/73 | |
| 2010-04-03 | 50km | 6:08:22 h | 8.144 | 16/22 | |
| 2010-04-09 | 50mi | 9:45:00 h | 8.253 | 4/26 | |
| 2010-04-11 | 50mi | 9:50:35 h | 8.175 | 36/46 | |
| 2010-04-18 | 100km | 11:20:57 h | 8.811 | 4/8 | |
| 2010-04-25 | 50mi | 10:46:43 h | 7.465 | 64/88 | |
| 2010-05-15 | 12h | 64.035 km | 5.336 | 57/80 | |
| 2010-06-05 | 50mi | 8:48:18 h | 9.139 | 10/40 | |
| 2010-06-12 | 28.8mi | 5:19:00 h | 8.718 | 39/61 | |
| 2010-07-31 | 50mi | 9:51:23 h | 8.164 | 70/194 | |
| 2010-08-15 | 12h | 95.643 km | 7.970 | 3/40 | |
| 2010-08-28 | 100mi | 28:38:12 h | 5.620 | 47/78 | |
| 2010-09-11 | 100mi | 35:13:00 h | 4.570 | 10/11 | |
| 2010-10-02 | Baker Lake 50K Ultra Trail RunUnited States | 50km | 6:09:00 h | 8.130 | 43/115 |
| 2010-11-06 | 100mi | 20:22:31 h | 7.899 | 15/132 | |
| 2010-11-27 | Ghost of Seattle MarathonUnited States | 50km | 5:00:08 h | 9.996 | 8/16 |
| 2011-01-15 | 34mi | 7:55:00 h | 6.912 | 36/43 | |
| 2011-01-29 | Cedar River Yours TrulyUnited States | 50km | 5:17:00 h | 9.464 | 8/16 |
| 2011-02-19 | 50km | 4:51:00 h | 10.309 | 9/25 | |
| 2011-02-27 | Cedar River Yours TrulyUnited States | 50km | 6:05:00 h | 8.219 | 7/10 |
| 2011-03-06 | Lord Hill Trail RunUnited States | 50km | 7:07:15 h | 7.022 | 22/25 |
| 2011-03-19 | 24h | 80.467 km | 3.353 | 40/67 | |
| 2011-03-26 | 100km | 10:52:00 h | 9.202 | 1/3 | |
| 2011-04-10 | 50mi | 9:22:11 h | 8.588 | 25/43 | |
| 2011-04-23 | Squak Mountain 50 Km Trail RunUnited States | 50km | 7:29:09 h | 6.679 | 7/15 |
| 2011-09-17 | 40mi | 6:39:18 h | 9.673 | 8/31 | |
| 2012-02-18 | 100mi | 34:12:00 h | 4.706 | 8/16 | |
| 2012-07-27 | Resurrection Pass 100 Mile Ultra Trail RacesUnited States | 100mi | 26:03:00 h | 6.178 | 8/10 |
| 2012-09-15 | 40mi | 8:09:49 h | 7.885 | 25/32 | |
| 2013-08-09 | Resurrection Pass 100 Mile Ultra Trail RacesUnited States | 100mi | 25:16:24 h | 6.368 | 2/6 |
| 2013-09-21 | 40mi | 6:56:11 h | 9.281 | 13/41 | |
| 2014-02-15 | Susitna 100 MileUnited States | 100mi | 30:09:00 h | 5.338 | 6/24 |
| 2014-04-26 | 50mi | 11:13:15 h | 7.171 | 47/76 | |
| 2014-04-27 | 50mi | 9:02:45 h | 8.895 | 15/41 | |
| 2014-06-14 | 24h | 160.934 km | 6.706 | 1/10 | |
| 2014-08-04 | 6d | 540.578 km | 3.754 | 16/40 | |
| 2014-08-04 | Six Days in the Dome - 48h SplitUnited StatesIAU BronzeSplit of the race above; not counted again in the distance total*Palmer, AK | 48h | 249.818 km | 5.205 | 13/40 |
| 2014-08-04 | Six Days in the Dome - 24h SplitUnited StatesIAU BronzeSplit of the race above; not counted again in the distance total*Palmer, AK | 24h | 145.178 km | 6.049 | 13/40 |
| 2014-08-17 | 49km | 4:21:35 h | 11.239 | 5/93 | |
| 2014-09-20 | 40mi | 6:53:17 h | 9.346 | 11/30 | |
| 2015-06-13 | 24h | 123.114 km | 5.130 | 4/7 | |
| 2015-07-18 | Drew's Angel Creek 50 Mile RaceUnited States | 50mi | 15:48:01 h | 5.093 | 16/16 |
| 2015-08-16 | 49km | 4:32:10 h | 10.802 | 17/90 | |
| 2015-09-19 | 40mi | 7:03:30 h | 9.120 | 10/15 | |
| 2015-12-31 | 72h | 244.974 km | 3.402 | 11/30 | |
| 2016-02-13 | 100mi | 30:57:22 h | 5.199 | 10/28 | |
| 2016-05-14 | 24h | 161.200 km | 6.717 | 18/41 | |
| 2016-08-12 | Resurrection Pass 100 Mile Ultra Trail RacesUnited States | 100mi | 26:57:33 h | 5.970 | 9/12 |
| 2016-08-21 | 49km | 4:25:50 h | 11.060 | 5/92 | |
| 2016-08-27 | 100mi | 31:36:05 h | 5.093 | 89/127 | |
| 2016-09-03 | 24h | 83.685 km | 3.487 | 5/7 | |
| 2017-03-26 | 100mi | 36:30:00 h | 4.409 | 9/14 | |
| 2017-05-13 | 24h | 84.800 km | 3.533 | 25/37 | |
| 2017-05-13 | Dawn to Dusk to Dawn 24 Hour - 50mi SplitUnited StatesIAU SilverSplit of the race above; not counted again in the distance total | 50mi | 9:05:02 h | 8.858 | 6/28 |
| 2017-05-13 | Dawn to Dusk to Dawn 24 Hour - 50km SplitUnited StatesIAU SilverSplit of the race above; not counted again in the distance total | 50km | 5:07:57 h | 9.742 | 6/37 |
| 2017-08-12 | Resurrection Pass 50 Mile Ultra Trail RaceUnited States | 50mi | 10:49:38 h | 7.432 | 24/43 |
| 2017-08-20 | 49km | 4:24:00 h | 11.136 | 10/100 | |
| 2017-09-02 | 24h | 64.373 km | 2.682 | 7/8 | |
| 2018-03-24 | 12h | 51.499 km | 4.292 | 22/42 | |
| 2018-08-19 | 49km | 4:40:42 h | 10.474 | 13/81 | |
| 2018-09-01 | 24h | 83.685 km | 3.487 | 7/10 | |
| 2018-09-22 | 24h | 169.756 km | 7.073 | 16/124 | |
| 2019-05-11 | 24h | 133.999 km | 5.583 | 17/48 | |
| 2019-08-18 | 49km | 4:22:28 h | 11.201 | 8/88 | |
| 2019-08-31 | 24h | 96.560 km | 4.023 | 7/19 | |
| 2019-11-29 | 12h | 50.551 km | 4.213 | 10/10 | |
| 2020-04-18 | 12h | 45.866 km | 3.822 | 6/7 | |
| 2021-06-19 | 24h | 167.183 km | 6.966 | 8/25 | |
| 2021-07-30 | Resurrection Pass 100 Mile Ultra Trail RacesUnited States | 100mi | 25:53:36 h | 6.215 | 3/9 |
| 2021-08-22 | 49km | 4:23:54 h | 11.141 | 10/85 | |
| 2022-02-19 | 100mi | 23:15:00 h | 6.922 | 5/27 | |
| 2022-06-03 | 24h | 106.216 km | 4.426 | 8/32 | |
| 2022-07-16 | 22h | 80.472 km | 12laps | 12/21 | |
| 2022-08-21 | 49km | 4:20:21 h | 11.292 | 7/48 | |
| 2022-11-12 | 24h | 169.737 km | 7.072 | 5/46 | |
| 2023-03-25 | 24h | 99.779 km | 4.157 | 23/63 | |
| 2023-05-13 | 24h | 181.200 km | 7.550 | 3/33 | |
| 2023-05-13 | Dawn to Dusk to Dawn 24 Hour - 100mi SplitUnited StatesIAU BronzeSplit of the race above; not counted again in the distance total*Talkeetna, AK | 100mi | 20:28:47 h | 7.858 | 3/9 |
| 2023-05-13 | Dawn to Dusk to Dawn 24 Hour - 100km SplitUnited StatesIAU BronzeSplit of the race above; not counted again in the distance total*Talkeetna, AK | 100km | 12:02:48 h | 8.301 | 7/18 |
| 2023-05-13 | Dawn to Dusk to Dawn 24 Hour - 50mi SplitUnited StatesIAU BronzeSplit of the race above; not counted again in the distance total*Talkeetna, AK | 50mi | 9:05:44 h | 8.847 | 6/22 |
| 2023-05-13 | Dawn to Dusk to Dawn 24 Hour - 50km SplitUnited StatesIAU BronzeSplit of the race above; not counted again in the distance total*Talkeetna, AK | 50km | 5:22:47 h | 9.294 | 9/32 |
| 2023-06-02 | 24h | 77.248 km | 3.219 | 23/30 | |
| 2023-06-09 | 16h | 80.472 km | 12laps | 3/5 | |
| 2023-07-08 | 22h | 80.472 km | 12laps | 7/17 | |
| 2023-08-05 | 50mi | 9:17:53 h | 8.654 | 2/17 | |
| 2023-08-20 | 49km | 4:18:54 h | 11.356 | 5/45 | |
| 2023-09-09 | Lakes TrailFestUnited States | 50km | 5:48:13 h | 8.615 | 2/15 |
| 2023-11-11 | The Stinger 24 Hour Race - 12h SplitUnited StatesIAU BronzeSplit of the race above; not counted again in the distance total | 12h | 81.684 km | 6.807 | 17/28 |
| 2023-11-11 | 24h | 81.674 km | 3.403 | 26/29 | |
| 2024-02-17 | 50km | 7:15:41 h | 6.886 | 10/33 | |
| 2024-03-30 | 12h | 102.998 km | 8.583 | 3/52 | |
| 2024-04-13 | 24h | 100.590 km | 15laps | 7/40 | |
| 2024-07-13 | 15h | 60.354 km | 9laps | 9/15 | |
| 2024-08-03 | 50mi | 9:52:00 h | 8.155 | 3/21 | |
| 2024-08-18 | 49km | 5:19:21 h | 9.206 | 35/60 | |
| 2024-09-08 | Lakes TrailFestUnited States | 50km | 6:14:46 h | 8.005 | 6/21 |
| 2025-06-06 | 14h | 53.648 km | 8laps | 9/17 | |
| 2025-07-12 | 19h | 53.648 km | 8laps | 14/28 | |
| 2025-08-02 | 50mi | 10:25:45 h | 7.716 | 8/23 | |
| 2025-08-17 | 49km | 4:51:51 h | 10.074 | 15/54 | |
| 2025-09-20 | 100km | 12:53:47 h | 7.754 | 9/37 | |
| 2025-09-28 | Lakes TrailFestUnited States | 50km | 6:11:23 h | 8.078 | 10/18 |
| 2026-06-05 | 20h | 60.354 km | 9laps | 12/19 | |
| 2026-06-21 | 50km | 5:42:51 h | 8.750 | 9/23 | |
| 2026-08-16 | 49km | 5:10:04 h | 9.482 | 30/66 |